METAR Luftfahrt Wetterdaten     LSZH Zürich Airport
Temperatur
19°C Temperatur
9°C Taupunkt
52% Feuchtigkeit



Wind
8 KM/h
5 MPS
2 M/S
4 KTS



60°
ONO
Aktuelle Wetterlage

Klar Klar
Luftdruck 1015.92 (hPa) - 30 (inHg)
Sichtweite 6.2 (Meile) - 10 (Km)
Flughafen
Flughafen Code LSZH

Position : Zürich Airport
Entfernung: 60 (Km)

Metar:
LSZH 122020Z 06004KT CAVOK 19/09 Q1016 NOSIG

Zeit: 12-08-2022 22:20 CEST